sensor_id;sensor_type;location;lat;lon;timestamp;pressure;altitude;pressure_sealevel;temperature;humidity
13478;BME280;12598;62.382;17.344;2022-12-16T00:00:12;100647.31;;;10.65;15.52
13478;BME280;12598;62.382;17.344;2022-12-16T00:01:17;100645.72;;;10.62;15.65
13478;BME280;12598;62.382;17.344;2022-12-16T00:02:19;100656.09;;;10.65;15.54
13478;BME280;12598;62.382;17.344;2022-12-16T00:03:21;100659.56;;;10.66;15.89
13478;BME280;12598;62.382;17.344;2022-12-16T00:04:23;100662.22;;;10.66;15.42
13478;BME280;12598;62.382;17.344;2022-12-16T00:05:25;100656.09;;;10.65;16.13
13478;BME280;12598;62.382;17.344;2022-12-16T00:06:30;100665.00;;;10.64;16.20
13478;BME280;12598;62.382;17.344;2022-12-16T00:07:32;100652.06;;;10.60;15.49
13478;BME280;12598;62.382;17.344;2022-12-16T00:08:36;100651.19;;;10.59;15.91
13478;BME280;12598;62.382;17.344;2022-12-16T00:09:38;100658.00;;;10.63;15.99
13478;BME280;12598;62.382;17.344;2022-12-16T00:10:40;100660.53;;;10.65;16.19
13478;BME280;12598;62.382;17.344;2022-12-16T00:11:55;100661.19;;;10.68;16.07
13478;BME280;12598;62.382;17.344;2022-12-16T00:12:57;100663.91;;;10.67;15.60
13478;BME280;12598;62.382;17.344;2022-12-16T00:13:59;100662.22;;;10.66;15.38
13478;BME280;12598;62.382;17.344;2022-12-16T00:15:00;100657.06;;;10.64;15.76
13478;BME280;12598;62.382;17.344;2022-12-16T00:16:05;100647.06;;;10.55;15.85
13478;BME280;12598;62.382;17.344;2022-12-16T00:17:07;100654.59;;;10.61;16.02
13478;BME280;12598;62.382;17.344;2022-12-16T00:18:08;100666.69;;;10.65;15.39
13478;BME280;12598;62.382;17.344;2022-12-16T00:19:10;100653.63;;;10.62;15.74
13478;BME280;12598;62.382;17.344;2022-12-16T00:20:12;100659.69;;;10.64;15.68
13478;BME280;12598;62.382;17.344;2022-12-16T00:21:14;100655.66;;;10.59;16.00
13478;BME280;12598;62.382;17.344;2022-12-16T00:22:19;100656.47;;;10.59;15.91
13478;BME280;12598;62.382;17.344;2022-12-16T00:23:21;100665.94;;;10.63;15.51
13478;BME280;12598;62.382;17.344;2022-12-16T00:24:23;100665.16;;;10.61;15.97
13478;BME280;12598;62.382;17.344;2022-12-16T00:25:25;100665.94;;;10.63;16.46
13478;BME280;12598;62.382;17.344;2022-12-16T00:26:27;100661.56;;;10.62;16.16
13478;BME280;12598;62.382;17.344;2022-12-16T00:27:30;100658.38;;;10.57;15.84
13478;BME280;12598;62.382;17.344;2022-12-16T00:28:33;100673.88;;;10.63;16.13
13478;BME280;12598;62.382;17.344;2022-12-16T00:29:34;100671.31;;;10.62;15.65
13478;BME280;12598;62.382;17.344;2022-12-16T00:30:36;100669.50;;;10.62;15.52
13478;BME280;12598;62.382;17.344;2022-12-16T00:31:38;100661.56;;;10.62;16.15
13478;BME280;12598;62.382;17.344;2022-12-16T00:32:40;100666.03;;;10.62;16.26
13478;BME280;12598;62.382;17.344;2022-12-16T00:33:42;100666.03;;;10.62;15.57
13478;BME280;12598;62.382;17.344;2022-12-16T00:34:43;100656.47;;;10.59;16.32
13478;BME280;12598;62.382;17.344;2022-12-16T00:35:46;100658.31;;;10.59;15.73
13478;BME280;12598;62.382;17.344;2022-12-16T00:36:48;100666.03;;;10.62;15.67
13478;BME280;12598;62.382;17.344;2022-12-16T00:37:50;100668.66;;;10.62;15.95
13478;BME280;12598;62.382;17.344;2022-12-16T00:38:53;100670.44;;;10.61;16.33
13478;BME280;12598;62.382;17.344;2022-12-16T00:39:55;100669.63;;;10.61;16.08
13478;BME280;12598;62.382;17.344;2022-12-16T00:40:57;100665.16;;;10.61;15.89
13478;BME280;12598;62.382;17.344;2022-12-16T00:41:59;100657.97;;;10.51;16.21
13478;BME280;12598;62.382;17.344;2022-12-16T00:43:01;100658.50;;;10.56;15.96
13478;BME280;12598;62.382;17.344;2022-12-16T00:44:03;100673.94;;;10.62;15.59
13478;BME280;12598;62.382;17.344;2022-12-16T00:45:05;100670.44;;;10.61;16.00
13478;BME280;12598;62.382;17.344;2022-12-16T00:46:08;100672.13;;;10.62;16.10
13478;BME280;12598;62.382;17.344;2022-12-16T00:47:10;100636.66;;;10.40;15.69
13478;BME280;12598;62.382;17.344;2022-12-16T00:48:11;100681.03;;;10.61;16.39
13478;BME280;12598;62.382;17.344;2022-12-16T00:49:13;100677.44;;;10.62;15.69
13478;BME280;12598;62.382;17.344;2022-12-16T00:50:16;100677.56;;;10.61;15.53
13478;BME280;12598;62.382;17.344;2022-12-16T00:51:18;100681.03;;;10.61;15.65
13478;BME280;12598;62.382;17.344;2022-12-16T00:52:19;100683.66;;;10.61;16.15
13478;BME280;12598;62.382;17.344;2022-12-16T00:53:22;100684.63;;;10.60;15.85
13478;BME280;12598;62.382;17.344;2022-12-16T00:54:24;100681.03;;;10.61;16.17
13478;BME280;12598;62.382;17.344;2022-12-16T00:55:26;100676.59;;;10.62;16.17
13478;BME280;12598;62.382;17.344;2022-12-16T00:56:28;100681.97;;;10.60;15.93
13478;BME280;12598;62.382;17.344;2022-12-16T00:57:29;100684.63;;;10.60;16.21
13478;BME280;12598;62.382;17.344;2022-12-16T00:58:32;100660.69;;;10.49;16.01
13478;BME280;12598;62.382;17.344;2022-12-16T00:59:33;100678.50;;;10.60;15.57
13478;BME280;12598;62.382;17.344;2022-12-16T01:00:35;100680.28;;;10.59;15.85
13478;BME280;12598;62.382;17.344;2022-12-16T01:01:37;100683.78;;;10.60;15.79
13478;BME280;12598;62.382;17.344;2022-12-16T01:02:43;100678.50;;;10.60;15.89
13478;BME280;12598;62.382;17.344;2022-12-16T01:03:46;100682.84;;;10.61;15.51
13478;BME280;12598;62.382;17.344;2022-12-16T01:04:47;100687.25;;;10.60;15.64
13478;BME280;12598;62.382;17.344;2022-12-16T01:05:49;100688.22;;;10.59;15.63
13478;BME280;12598;62.382;17.344;2022-12-16T01:06:52;100689.91;;;10.60;16.17
13478;BME280;12598;62.382;17.344;2022-12-16T01:07:55;100686.44;;;10.60;16.23
13478;BME280;12598;62.382;17.344;2022-12-16T01:08:57;100682.91;;;10.59;16.22
13478;BME280;12598;62.382;17.344;2022-12-16T01:09:59;100683.13;;;10.56;16.03
13478;BME280;12598;62.382;17.344;2022-12-16T01:11:01;100688.22;;;10.59;15.71
13478;BME280;12598;62.382;17.344;2022-12-16T01:12:03;100687.38;;;10.59;16.00
13478;BME280;12598;62.382;17.344;2022-12-16T01:13:04;100687.38;;;10.59;15.73
13478;BME280;12598;62.382;17.344;2022-12-16T01:14:06;100690.09;;;10.57;16.02
13478;BME280;12598;62.382;17.344;2022-12-16T01:15:09;100690.09;;;10.57;16.45
13478;BME280;12598;62.382;17.344;2022-12-16T01:16:13;100691.81;;;10.58;15.76
13478;BME280;12598;62.382;17.344;2022-12-16T01:17:15;100692.66;;;10.59;16.18
13478;BME280;12598;62.382;17.344;2022-12-16T01:18:18;100689.28;;;10.57;15.78
13478;BME280;12598;62.382;17.344;2022-12-16T01:19:20;100690.09;;;10.57;16.00
13478;BME280;12598;62.382;17.344;2022-12-16T01:20:21;100695.41;;;10.57;16.03
13478;BME280;12598;62.382;17.344;2022-12-16T01:21:23;100693.69;;;10.56;15.71
13478;BME280;12598;62.382;17.344;2022-12-16T01:22:25;100700.69;;;10.57;16.51
13478;BME280;12598;62.382;17.344;2022-12-16T01:23:27;100702.50;;;10.57;15.79
13478;BME280;12598;62.382;17.344;2022-12-16T01:24:28;100691.06;;;10.56;16.46
13478;BME280;12598;62.382;17.344;2022-12-16T01:25:30;100682.59;;;10.51;16.33
13478;BME280;12598;62.382;17.344;2022-12-16T01:26:32;100693.69;;;10.56;16.43
13478;BME280;12598;62.382;17.344;2022-12-16T01:27:34;100693.69;;;10.56;16.43
13478;BME280;12598;62.382;17.344;2022-12-16T01:28:36;100692.00;;;10.55;16.08
13478;BME280;12598;62.382;17.344;2022-12-16T01:29:37;100696.47;;;10.55;16.47
13478;BME280;12598;62.382;17.344;2022-12-16T01:30:39;100707.88;;;10.55;16.05
13478;BME280;12598;62.382;17.344;2022-12-16T01:31:41;100690.31;;;10.54;15.79
13478;BME280;12598;62.382;17.344;2022-12-16T01:32:43;100661.13;;;10.43;16.31
13478;BME280;12598;62.382;17.344;2022-12-16T01:33:45;100695.59;;;10.54;15.98
13478;BME280;12598;62.382;17.344;2022-12-16T01:34:51;100683.34;;;10.53;15.91
13478;BME280;12598;62.382;17.344;2022-12-16T01:36:04;100683.13;;;10.56;15.91
13478;BME280;12598;62.382;17.344;2022-12-16T01:37:10;100683.03;;;10.58;15.94
13478;BME280;12598;62.382;17.344;2022-12-16T01:38:12;100681.22;;;10.58;15.86
13478;BME280;12598;62.382;17.344;2022-12-16T01:39:14;100684.06;;;10.55;16.34
13478;BME280;12598;62.382;17.344;2022-12-16T01:40:19;100682.38;;;10.54;16.42
13478;BME280;12598;62.382;17.344;2022-12-16T01:41:21;100667.88;;;10.47;15.78
13478;BME280;12598;62.382;17.344;2022-12-16T01:42:23;100672.22;;;10.48;16.31
13478;BME280;12598;62.382;17.344;2022-12-16T01:43:32;100691.19;;;10.55;16.54
13478;BME280;12598;62.382;17.344;2022-12-16T01:44:34;100685.88;;;10.55;16.15
13478;BME280;12598;62.382;17.344;2022-12-16T01:45:36;100688.63;;;10.53;16.21
13478;BME280;12598;62.382;17.344;2022-12-16T01:46:39;100675.06;;;10.45;16.55
13478;BME280;12598;62.382;17.344;2022-12-16T01:47:41;100681.84;;;10.49;16.32
13478;BME280;12598;62.382;17.344;2022-12-16T01:48:49;100682.72;;;10.50;16.47
13478;BME280;12598;62.382;17.344;2022-12-16T01:49:58;100679.75;;;10.54;15.82
13478;BME280;12598;62.382;17.344;2022-12-16T01:51:05;100679.75;;;10.54;16.39
13478;BME280;12598;62.382;17.344;2022-12-16T01:52:16;100681.44;;;10.55;16.21
13478;BME280;12598;62.382;17.344;2022-12-16T01:53:20;100680.47;;;10.56;16.06
13478;BME280;12598;62.382;17.344;2022-12-16T01:54:39;100685.88;;;10.55;16.52
13478;BME280;12598;62.382;17.344;2022-12-16T01:55:46;100685.78;;;10.56;16.42
13478;BME280;12598;62.382;17.344;2022-12-16T01:57:02;100685.69;;;10.58;16.51
13478;BME280;12598;62.382;17.344;2022-12-16T01:58:18;100693.63;;;10.58;16.37
13478;BME280;12598;62.382;17.344;2022-12-16T01:59:24;100684.81;;;10.57;16.48
13478;BME280;12598;62.382;17.344;2022-12-16T02:00:27;100691.06;;;10.56;16.37
13478;BME280;12598;62.382;17.344;2022-12-16T02:01:30;100664.91;;;10.39;16.31
13478;BME280;12598;62.382;17.344;2022-12-16T02:02:32;100688.06;;;10.48;16.01
13478;BME280;12598;62.382;17.344;2022-12-16T02:03:36;100677.84;;;10.44;16.01
13478;BME280;12598;62.382;17.344;2022-12-16T02:04:38;100694.09;;;10.50;15.89
13478;BME280;12598;62.382;17.344;2022-12-16T02:06:00;100684.19;;;10.54;16.56
13478;BME280;12598;62.382;17.344;2022-12-16T02:07:03;100692.13;;;10.54;16.04
13478;BME280;12598;62.382;17.344;2022-12-16T02:09:08;100680.28;;;10.47;16.34
13478;BME280;12598;62.382;17.344;2022-12-16T02:10:11;100675.06;;;10.45;16.03
13478;BME280;12598;62.382;17.344;2022-12-16T02:15:09;100690.84;;;10.59;15.83
13478;BME280;12598;62.382;17.344;2022-12-16T02:16:33;100668.41;;;10.52;16.13
13478;BME280;12598;62.382;17.344;2022-12-16T02:19:58;100693.41;;;10.61;16.44
13478;BME280;12598;62.382;17.344;2022-12-16T02:23:51;100699.44;;;10.63;16.27
13478;BME280;12598;62.382;17.344;2022-12-16T02:27:04;100694.16;;;10.63;16.34
13478;BME280;12598;62.382;17.344;2022-12-16T02:28:31;100694.06;;;10.64;16.50
13478;BME280;12598;62.382;17.344;2022-12-16T02:33:40;100694.44;;;10.58;16.59
13478;BME280;12598;62.382;17.344;2022-12-16T02:34:48;100696.13;;;10.59;16.47
13478;BME280;12598;62.382;17.344;2022-12-16T02:36:05;100693.69;;;10.56;16.44
13478;BME280;12598;62.382;17.344;2022-12-16T02:38:41;100699.00;;;10.56;15.90
13478;BME280;12598;62.382;17.344;2022-12-16T02:39:59;100705.22;;;10.55;16.25
13478;BME280;12598;62.382;17.344;2022-12-16T02:41:09;100703.84;;;10.50;16.01
13478;BME280;12598;62.382;17.344;2022-12-16T02:42:24;100706.50;;;10.50;15.98
13478;BME280;12598;62.382;17.344;2022-12-16T02:43:53;100708.00;;;10.54;15.91
13478;BME280;12598;62.382;17.344;2022-12-16T02:45:03;100709.69;;;10.55;16.36
13478;BME280;12598;62.382;17.344;2022-12-16T02:46:08;100717.81;;;10.52;16.09
13478;BME280;12598;62.382;17.344;2022-12-16T02:47:10;100689.84;;;10.35;16.40
13478;BME280;12598;62.382;17.344;2022-12-16T02:48:12;100718.09;;;10.47;15.85
13478;BME280;12598;62.382;17.344;2022-12-16T02:50:22;100720.94;;;10.44;15.99
13478;BME280;12598;62.382;17.344;2022-12-16T02:51:26;100725.19;;;10.47;15.87
13478;BME280;12598;62.382;17.344;2022-12-16T02:52:30;100729.63;;;10.46;16.69
13478;BME280;12598;62.382;17.344;2022-12-16T02:53:35;100724.53;;;10.43;16.56
13478;BME280;12598;62.382;17.344;2022-12-16T02:54:38;100726.44;;;10.41;16.09
13478;BME280;12598;62.382;17.344;2022-12-16T02:56:05;100735.66;;;10.48;16.42
13478;BME280;12598;62.382;17.344;2022-12-16T03:02:25;100742.03;;;10.58;16.59
13478;BME280;12598;62.382;17.344;2022-12-16T03:03:50;100738.44;;;10.59;15.97
13478;BME280;12598;62.382;17.344;2022-12-16T03:05:02;100742.16;;;10.57;15.89
13478;BME280;12598;62.382;17.344;2022-12-16T03:06:07;100733.47;;;10.55;16.20
13478;BME280;12598;62.382;17.344;2022-12-16T03:07:13;100722.56;;;10.47;16.20
13478;BME280;12598;62.382;17.344;2022-12-16T03:08:42;100742.88;;;10.59;16.19
13478;BME280;12598;62.382;17.344;2022-12-16T03:09:47;100727.72;;;10.48;16.08
13478;BME280;12598;62.382;17.344;2022-12-16T03:10:55;100742.44;;;10.52;15.86
13478;BME280;12598;62.382;17.344;2022-12-16T03:12:00;100740.75;;;10.51;16.64
13478;BME280;12598;62.382;17.344;2022-12-16T03:13:04;100735.66;;;10.48;16.50
13478;BME280;12598;62.382;17.344;2022-12-16T03:14:10;100745.28;;;10.49;16.63
13478;BME280;12598;62.382;17.344;2022-12-16T03:15:17;100742.28;;;10.41;16.26
13478;BME280;12598;62.382;17.344;2022-12-16T03:16:23;100753.22;;;10.49;16.10
13478;BME280;12598;62.382;17.344;2022-12-16T03:17:27;100738.50;;;10.45;16.46
13478;BME280;12598;62.382;17.344;2022-12-16T03:18:29;100750.56;;;10.49;16.09
13478;BME280;12598;62.382;17.344;2022-12-16T03:19:33;100759.44;;;10.48;16.29
13478;BME280;12598;62.382;17.344;2022-12-16T03:20:46;100750.56;;;10.49;16.09
13478;BME280;12598;62.382;17.344;2022-12-16T03:23:00;100737.41;;;10.35;16.41
13478;BME280;12598;62.382;17.344;2022-12-16T03:24:07;100749.75;;;10.49;16.36
13478;BME280;12598;62.382;17.344;2022-12-16T03:25:11;100743.16;;;10.42;16.41
13478;BME280;12598;62.382;17.344;2022-12-16T03:26:38;100755.66;;;10.52;16.70
13478;BME280;12598;62.382;17.344;2022-12-16T03:28:55;100758.28;;;10.52;16.26
13478;BME280;12598;62.382;17.344;2022-12-16T03:30:12;100767.09;;;10.53;16.41
13478;BME280;12598;62.382;17.344;2022-12-16T03:33:57;100756.06;;;10.46;16.26
13478;BME280;12598;62.382;17.344;2022-12-16T03:35:01;100764.31;;;10.54;16.67
13478;BME280;12598;62.382;17.344;2022-12-16T03:36:09;100772.56;;;10.50;16.16
13478;BME280;12598;62.382;17.344;2022-12-16T03:37:13;100769.81;;;10.51;15.78
13478;BME280;12598;62.382;17.344;2022-12-16T03:38:16;100766.63;;;10.46;16.65
13478;BME280;12598;62.382;17.344;2022-12-16T03:39:20;100763.44;;;10.41;16.46
13478;BME280;12598;62.382;17.344;2022-12-16T03:40:26;100770.97;;;10.47;15.85
13478;BME280;12598;62.382;17.344;2022-12-16T03:41:30;100769.66;;;10.40;16.23
13478;BME280;12598;62.382;17.344;2022-12-16T03:42:34;100766.16;;;10.40;16.10
13478;BME280;12598;62.382;17.344;2022-12-16T03:43:37;100761.19;;;10.35;16.05
13478;BME280;12598;62.382;17.344;2022-12-16T03:44:39;100778.88;;;10.47;15.84
13478;BME280;12598;62.382;17.344;2022-12-16T03:45:43;100776.38;;;10.46;16.52
13478;BME280;12598;62.382;17.344;2022-12-16T03:46:47;100771.91;;;10.46;16.20
13478;BME280;12598;62.382;17.344;2022-12-16T03:47:49;100783.34;;;10.47;16.69
13478;BME280;12598;62.382;17.344;2022-12-16T03:48:52;100776.44;;;10.44;16.43
13478;BME280;12598;62.382;17.344;2022-12-16T03:49:54;100784.28;;;10.46;15.85
13478;BME280;12598;62.382;17.344;2022-12-16T03:50:56;100793.06;;;10.46;16.58
13478;BME280;12598;62.382;17.344;2022-12-16T03:51:58;100796.66;;;10.45;16.30
13478;BME280;12598;62.382;17.344;2022-12-16T03:53:00;100788.72;;;10.45;15.88
13478;BME280;12598;62.382;17.344;2022-12-16T03:54:02;100791.34;;;10.45;16.55
13478;BME280;12598;62.382;17.344;2022-12-16T03:55:04;100793.06;;;10.46;16.58
13478;BME280;12598;62.382;17.344;2022-12-16T03:56:06;100799.28;;;10.45;16.03
13478;BME280;12598;62.382;17.344;2022-12-16T03:57:08;100790.53;;;10.45;16.05
13478;BME280;12598;62.382;17.344;2022-12-16T03:58:16;100790.41;;;10.46;16.72
13478;BME280;12598;62.382;17.344;2022-12-16T03:59:18;100787.97;;;10.43;16.06
13478;BME280;12598;62.382;17.344;2022-12-16T04:00:20;100775.22;;;10.36;16.09
13478;BME280;12598;62.382;17.344;2022-12-16T04:01:21;100793.06;;;10.46;15.97
13478;BME280;12598;62.382;17.344;2022-12-16T04:02:24;100781.84;;;10.43;16.11
13478;BME280;12598;62.382;17.344;2022-12-16T04:03:26;100793.06;;;10.46;16.21
13478;BME280;12598;62.382;17.344;2022-12-16T04:04:28;100793.06;;;10.46;16.70
13478;BME280;12598;62.382;17.344;2022-12-16T04:05:30;100797.50;;;10.46;16.21
13478;BME280;12598;62.382;17.344;2022-12-16T04:06:32;100793.91;;;10.47;16.03
13478;BME280;12598;62.382;17.344;2022-12-16T04:07:33;100799.28;;;10.45;16.77
13478;BME280;12598;62.382;17.344;2022-12-16T04:08:35;100804.69;;;10.44;16.56
13478;BME280;12598;62.382;17.344;2022-12-16T04:09:37;100800.91;;;10.48;16.12
13478;BME280;12598;62.382;17.344;2022-12-16T04:10:39;100810.59;;;10.47;16.16
13478;BME280;12598;62.382;17.344;2022-12-16T04:12:00;100812.09;;;10.51;16.21
13478;BME280;12598;62.382;17.344;2022-12-16T04:13:20;100812.97;;;10.52;16.03
13478;BME280;12598;62.382;17.344;2022-12-16T04:14:41;100816.25;;;10.55;16.45
13478;BME280;12598;62.382;17.344;2022-12-16T04:16:01;100810.00;;;10.56;16.64
13478;BME280;12598;62.382;17.344;2022-12-16T04:17:22;100816.16;;;10.57;16.44
13478;BME280;12598;62.382;17.344;2022-12-16T04:18:42;100819.63;;;10.57;15.76
13478;BME280;12598;62.382;17.344;2022-12-16T04:20:03;100809.06;;;10.57;16.43
13478;BME280;12598;62.382;17.344;2022-12-16T04:21:23;100770.16;;;10.33;16.06
13478;BME280;12598;62.382;17.344;2022-12-16T04:22:44;100803.78;;;10.57;16.32
13478;BME280;12598;62.382;17.344;2022-12-16T04:24:06;100811.72;;;10.57;16.51
13478;BME280;12598;62.382;17.344;2022-12-16T04:25:24;100808.31;;;10.55;15.99
13478;BME280;12598;62.382;17.344;2022-12-16T04:26:27;100801.34;;;10.54;16.40
13478;BME280;12598;62.382;17.344;2022-12-16T04:27:29;100801.44;;;10.53;16.75
13478;BME280;12598;62.382;17.344;2022-12-16T04:28:31;100804.28;;;10.50;16.10
13478;BME280;12598;62.382;17.344;2022-12-16T04:29:33;100799.94;;;10.49;16.25
13478;BME280;12598;62.382;17.344;2022-12-16T04:30:55;100804.09;;;10.53;16.05
13478;BME280;12598;62.382;17.344;2022-12-16T04:31:59;100776.94;;;10.37;16.38
13478;BME280;12598;62.382;17.344;2022-12-16T04:34:22;100801.44;;;10.53;15.94
13478;BME280;12598;62.382;17.344;2022-12-16T04:35:27;100812.84;;;10.53;16.02
13478;BME280;12598;62.382;17.344;2022-12-16T04:36:48;100777.59;;;10.40;16.48
13478;BME280;12598;62.382;17.344;2022-12-16T04:38:09;100810.97;;;10.55;16.29
13478;BME280;12598;62.382;17.344;2022-12-16T04:39:29;100818.81;;;10.57;16.64
13478;BME280;12598;62.382;17.344;2022-12-16T04:40:49;100819.63;;;10.57;16.11
13478;BME280;12598;62.382;17.344;2022-12-16T04:42:10;100814.34;;;10.57;16.53
13478;BME280;12598;62.382;17.344;2022-12-16T04:43:31;100810.88;;;10.57;16.51
13478;BME280;12598;62.382;17.344;2022-12-16T04:44:51;100817.84;;;10.58;15.85
13478;BME280;12598;62.382;17.344;2022-12-16T04:46:12;100817.00;;;10.57;15.96
13478;BME280;12598;62.382;17.344;2022-12-16T04:47:32;100819.63;;;10.57;16.68
13478;BME280;12598;62.382;17.344;2022-12-16T04:48:58;100819.63;;;10.57;16.16
13478;BME280;12598;62.382;17.344;2022-12-16T04:50:18;100823.16;;;10.58;16.10
13478;BME280;12598;62.382;17.344;2022-12-16T04:51:38;100827.56;;;10.57;16.05
13478;BME280;12598;62.382;17.344;2022-12-16T04:52:59;100824.09;;;10.57;16.04
13478;BME280;12598;62.382;17.344;2022-12-16T04:54:19;100825.03;;;10.56;15.90
13478;BME280;12598;62.382;17.344;2022-12-16T04:55:39;100824.19;;;10.55;16.08
13478;BME280;12598;62.382;17.344;2022-12-16T04:57:05;100835.63;;;10.56;16.70
13478;BME280;12598;62.382;17.344;2022-12-16T04:58:25;100826.00;;;10.55;16.44
13478;BME280;12598;62.382;17.344;2022-12-16T04:59:45;100833.06;;;10.54;16.31
13478;BME280;12598;62.382;17.344;2022-12-16T05:01:06;100819.28;;;10.49;16.07
13478;BME280;12598;62.382;17.344;2022-12-16T05:02:26;100834.00;;;10.53;16.46
13478;BME280;12598;62.382;17.344;2022-12-16T05:03:46;100814.41;;;10.43;16.24
13478;BME280;12598;62.382;17.344;2022-12-16T05:05:06;100836.66;;;10.53;16.48
13478;BME280;12598;62.382;17.344;2022-12-16T05:06:27;100834.94;;;10.52;16.55
13478;BME280;12598;62.382;17.344;2022-12-16T05:07:47;100834.13;;;10.52;16.56
13478;BME280;12598;62.382;17.344;2022-12-16T05:09:07;100826.66;;;10.44;16.11
13478;BME280;12598;62.382;17.344;2022-12-16T05:10:28;100840.22;;;10.52;16.77
13478;BME280;12598;62.382;17.344;2022-12-16T05:11:48;100836.84;;;10.50;16.63
13478;BME280;12598;62.382;17.344;2022-12-16T05:13:09;100836.00;;;10.50;16.68
13478;BME280;12598;62.382;17.344;2022-12-16T05:14:30;100836.00;;;10.50;16.38
13478;BME280;12598;62.382;17.344;2022-12-16T05:15:50;100839.41;;;10.52;16.87
13478;BME280;12598;62.382;17.344;2022-12-16T05:17:10;100827.34;;;10.48;16.10
13478;BME280;12598;62.382;17.344;2022-12-16T05:18:31;100834.13;;;10.52;16.76
13478;BME280;12598;62.382;17.344;2022-12-16T05:19:51;100831.75;;;10.47;16.26
13478;BME280;12598;62.382;17.344;2022-12-16T05:21:12;100839.41;;;10.52;16.06
13478;BME280;12598;62.382;17.344;2022-12-16T05:22:32;100840.22;;;10.52;16.02
13478;BME280;12598;62.382;17.344;2022-12-16T05:23:52;100841.94;;;10.53;16.12
13478;BME280;12598;62.382;17.344;2022-12-16T05:25:13;100849.03;;;10.53;16.31
13478;BME280;12598;62.382;17.344;2022-12-16T05:26:33;100848.16;;;10.52;15.88
13478;BME280;12598;62.382;17.344;2022-12-16T05:27:54;100857.78;;;10.53;16.73
13478;BME280;12598;62.382;17.344;2022-12-16T05:29:14;100850.06;;;10.50;16.17
13478;BME280;12598;62.382;17.344;2022-12-16T05:30:34;100855.16;;;10.53;16.58
13478;BME280;12598;62.382;17.344;2022-12-16T05:31:56;100854.19;;;10.54;16.64
13478;BME280;12598;62.382;17.344;2022-12-16T05:33:16;100856.97;;;10.53;16.22
13478;BME280;12598;62.382;17.344;2022-12-16T05:34:36;100855.16;;;10.53;16.16
13478;BME280;12598;62.382;17.344;2022-12-16T05:35:57;100856.97;;;10.53;16.31
13478;BME280;12598;62.382;17.344;2022-12-16T05:37:17;100854.19;;;10.54;15.90
13478;BME280;12598;62.382;17.344;2022-12-16T05:38:37;100853.38;;;10.54;16.27
13478;BME280;12598;62.382;17.344;2022-12-16T05:39:58;100840.63;;;10.46;16.37
13478;BME280;12598;62.382;17.344;2022-12-16T05:41:18;100847.53;;;10.49;16.45
13478;BME280;12598;62.382;17.344;2022-12-16T05:42:38;100840.63;;;10.46;16.20
13478;BME280;12598;62.382;17.344;2022-12-16T05:43:59;100855.91;;;10.55;16.20
13478;BME280;12598;62.382;17.344;2022-12-16T05:45:19;100856.84;;;10.54;16.27
13478;BME280;12598;62.382;17.344;2022-12-16T05:46:40;100859.50;;;10.54;16.46
13478;BME280;12598;62.382;17.344;2022-12-16T05:48:00;100855.06;;;10.55;16.00
13478;BME280;12598;62.382;17.344;2022-12-16T05:49:20;100863.81;;;10.55;16.71
13478;BME280;12598;62.382;17.344;2022-12-16T05:50:40;100865.63;;;10.55;16.45
13478;BME280;12598;62.382;17.344;2022-12-16T05:52:01;100860.25;;;10.56;15.93
13478;BME280;12598;62.382;17.344;2022-12-16T05:53:21;100855.91;;;10.55;15.84
13478;BME280;12598;62.382;17.344;2022-12-16T05:54:41;100848.47;;;10.48;16.38
13478;BME280;12598;62.382;17.344;2022-12-16T05:56:02;100856.00;;;10.54;16.54
13478;BME280;12598;62.382;17.344;2022-12-16T05:57:22;100858.00;;;10.50;16.22
13478;BME280;12598;62.382;17.344;2022-12-16T05:59:02;100861.84;;;10.59;16.66
13478;BME280;12598;62.382;17.344;2022-12-16T06:00:22;100858.47;;;10.57;16.31
13478;BME280;12598;62.382;17.344;2022-12-16T06:01:42;100857.91;;;10.52;16.35
13478;BME280;12598;62.382;17.344;2022-12-16T06:03:03;100866.47;;;10.55;16.63
13478;BME280;12598;62.382;17.344;2022-12-16T06:04:24;100867.34;;;10.56;16.39
13478;BME280;12598;62.382;17.344;2022-12-16T06:05:44;100867.22;;;10.57;16.24
13478;BME280;12598;62.382;17.344;2022-12-16T06:07:05;100858.75;;;10.52;16.30
13478;BME280;12598;62.382;17.344;2022-12-16T06:08:25;100822.38;;;10.29;16.61
13478;BME280;12598;62.382;17.344;2022-12-16T06:09:45;100874.22;;;10.58;16.52
13478;BME280;12598;62.382;17.344;2022-12-16T06:11:06;100874.13;;;10.60;15.91
13478;BME280;12598;62.382;17.344;2022-12-16T06:12:26;100869.50;;;10.63;15.93
13478;BME280;12598;62.382;17.344;2022-12-16T06:13:46;100871.19;;;10.64;16.22
13478;BME280;12598;62.382;17.344;2022-12-16T06:15:06;100871.84;;;10.68;16.80
13478;BME280;12598;62.382;17.344;2022-12-16T06:16:27;100869.00;;;10.71;15.91
13478;BME280;12598;62.382;17.344;2022-12-16T06:17:48;100872.31;;;10.74;16.59
13478;BME280;12598;62.382;17.344;2022-12-16T06:19:09;100869.34;;;10.79;15.86
13478;BME280;12598;62.382;17.344;2022-12-16T06:20:30;100872.66;;;10.82;16.35
13478;BME280;12598;62.382;17.344;2022-12-16T06:21:50;100873.19;;;10.87;15.80
13478;BME280;12598;62.382;17.344;2022-12-16T06:23:10;100865.38;;;10.86;16.14
13478;BME280;12598;62.382;17.344;2022-12-16T06:24:31;100876.19;;;10.95;15.96
13478;BME280;12598;62.382;17.344;2022-12-16T06:25:51;100870.69;;;10.98;15.90
13478;BME280;12598;62.382;17.344;2022-12-16T06:27:11;100884.47;;;11.03;16.13
13478;BME280;12598;62.382;17.344;2022-12-16T06:28:32;100885.03;;;11.08;16.40
13478;BME280;12598;62.382;17.344;2022-12-16T06:29:52;100877.28;;;11.05;16.13